createdAt,value
2017-09-07T00:00:00.240Z,3.07
2017-09-07T00:02:28.085Z,3.23
2017-09-07T00:04:55.900Z,2.97
2017-09-07T00:07:23.755Z,2.70
2017-09-07T00:09:51.636Z,2.53
2017-09-07T00:12:19.553Z,2.73
2017-09-07T00:14:47.658Z,3.17
2017-09-07T00:17:15.565Z,2.77
2017-09-07T00:19:43.491Z,3.40
2017-09-07T00:22:11.354Z,3.07
2017-09-07T00:24:39.307Z,2.40
2017-09-07T00:27:07.239Z,3.43
2017-09-07T00:29:35.161Z,2.63
2017-09-07T00:32:03.001Z,3.30
2017-09-07T00:34:30.957Z,3.10
2017-09-07T00:36:59.070Z,3.70
2017-09-07T00:39:27.023Z,2.97
2017-09-07T00:41:54.848Z,2.57
2017-09-07T00:44:22.705Z,3.67
2017-09-07T00:46:50.615Z,2.97
2017-09-07T00:49:18.487Z,2.40
2017-09-07T00:51:46.467Z,2.83
2017-09-07T00:54:14.425Z,3.13
2017-09-07T00:56:42.292Z,3.23
2017-09-07T00:59:10.294Z,2.60
2017-09-07T01:01:38.176Z,3.60
2017-09-07T01:04:06.077Z,3.20
2017-09-07T01:06:33.939Z,4.20
2017-09-07T01:09:01.879Z,3.40
2017-09-07T01:11:29.740Z,2.50
2017-09-07T01:13:57.607Z,3.20
2017-09-07T01:16:25.515Z,2.30
2017-09-07T01:18:53.451Z,2.70
2017-09-07T01:21:21.376Z,2.60
2017-09-07T01:23:49.308Z,2.90
2017-09-07T01:26:17.285Z,2.70
2017-09-07T01:28:45.152Z,3.10
2017-09-07T01:31:13.140Z,2.70
2017-09-07T01:33:41.008Z,2.97
2017-09-07T01:36:08.840Z,3.07
2017-09-07T01:38:37.050Z,3.03
2017-09-07T01:41:05.026Z,2.50
2017-09-07T01:43:32.897Z,3.20
2017-09-07T01:46:00.731Z,2.40
2017-09-07T01:48:47.488Z,3.27
2017-09-07T01:51:16.164Z,3.03
2017-09-07T01:53:44.008Z,2.83
2017-09-07T01:56:11.883Z,3.27
2017-09-07T01:58:39.782Z,2.53
2017-09-07T02:01:07.787Z,2.90
2017-09-07T02:03:35.650Z,2.97
2017-09-07T02:06:03.559Z,2.80
2017-09-07T02:08:31.429Z,3.20
2017-09-07T02:10:59.332Z,3.00
2017-09-07T02:13:27.184Z,3.20
2017-09-07T02:15:55.087Z,3.30
2017-09-07T02:18:22.962Z,2.70
2017-09-07T02:20:50.870Z,2.80
2017-09-07T02:23:18.709Z,3.93
2017-09-07T02:25:46.979Z,3.20
2017-09-07T02:28:14.895Z,2.70
2017-09-07T02:30:42.752Z,3.87
2017-09-07T02:33:10.646Z,2.40
2017-09-07T02:35:38.543Z,3.23
2017-09-07T02:38:06.406Z,3.60
2017-09-07T02:40:35.303Z,2.83
2017-09-07T02:43:03.213Z,3.03
2017-09-07T02:45:31.119Z,3.00
2017-09-07T02:47:58.936Z,3.40
2017-09-07T02:50:26.793Z,2.60
2017-09-07T02:52:54.621Z,3.53
2017-09-07T02:55:22.480Z,2.87
2017-09-07T02:57:50.329Z,2.83
2017-09-07T03:00:18.239Z,3.10
2017-09-07T03:02:46.133Z,3.47
2017-09-07T03:05:14.819Z,3.27
2017-09-07T03:07:42.752Z,3.60
2017-09-07T03:10:10.698Z,2.80
2017-09-07T03:12:38.572Z,2.40
2017-09-07T03:15:06.403Z,2.80
2017-09-07T03:17:34.484Z,2.83
2017-09-07T03:20:02.358Z,3.57
2017-09-07T03:22:30.229Z,2.57
2017-09-07T03:24:58.141Z,3.20
2017-09-07T03:27:26.004Z,3.63
2017-09-07T03:29:53.875Z,3.10
2017-09-07T03:32:21.767Z,2.50
2017-09-07T03:34:50.450Z,3.00
2017-09-07T03:37:18.342Z,3.10
2017-09-07T03:39:46.931Z,2.97
2017-09-07T03:42:14.778Z,3.13
2017-09-07T03:44:43.518Z,3.30
2017-09-07T03:47:11.411Z,3.20
2017-09-07T03:49:39.287Z,3.85
2017-09-07T03:52:07.160Z,3.33
2017-09-07T03:54:35.071Z,3.47
2017-09-07T03:57:02.919Z,4.10
2017-09-07T03:59:30.885Z,3.83
2017-09-07T04:01:58.819Z,3.97
2017-09-07T04:04:26.695Z,3.63
2017-09-07T04:06:54.603Z,3.90
2017-09-07T04:09:22.599Z,3.60
2017-09-07T04:11:50.554Z,3.43
2017-09-07T04:14:18.516Z,4.00
2017-09-07T04:16:46.430Z,2.83
2017-09-07T04:19:14.278Z,3.17
2017-09-07T04:21:42.186Z,3.60
2017-09-07T04:24:10.093Z,3.60
2017-09-07T04:26:38.087Z,2.90
2017-09-07T04:29:05.920Z,4.20
2017-09-07T04:31:33.777Z,3.50
2017-09-07T04:34:02.076Z,3.77
2017-09-07T04:36:29.909Z,3.30
2017-09-07T04:38:57.787Z,3.40
2017-09-07T04:41:25.675Z,2.63
2017-09-07T04:43:53.582Z,4.80
2017-09-07T04:46:22.262Z,3.90
2017-09-07T04:48:50.949Z,3.13
2017-09-07T04:51:18.798Z,2.90
2017-09-07T04:53:46.719Z,3.60
2017-09-07T04:56:14.594Z,3.33
2017-09-07T04:58:42.455Z,3.07
2017-09-07T05:01:10.306Z,3.70
2017-09-07T05:03:38.132Z,3.20
2017-09-07T05:06:06.101Z,3.53
2017-09-07T05:08:34.048Z,3.20
2017-09-07T05:11:01.989Z,4.00
2017-09-07T05:13:29.863Z,3.87
2017-09-07T05:15:57.757Z,3.57
2017-09-07T05:18:25.616Z,4.27
2017-09-07T05:20:53.509Z,3.47
2017-09-07T05:23:21.421Z,3.20
2017-09-07T05:25:49.273Z,3.73
2017-09-07T05:28:17.168Z,3.43
2017-09-07T05:30:45.081Z,3.70
2017-09-07T05:33:14.080Z,3.47
2017-09-07T05:35:41.926Z,3.97
2017-09-07T05:38:09.797Z,4.03
2017-09-07T05:40:37.749Z,3.20
2017-09-07T05:43:05.638Z,4.17
2017-09-07T05:45:33.633Z,3.90
2017-09-07T05:48:01.533Z,3.30
2017-09-07T05:50:29.394Z,3.50
2017-09-07T05:52:57.323Z,4.33
2017-09-07T05:55:25.253Z,3.70
2017-09-07T05:57:53.111Z,4.40
2017-09-07T06:00:20.998Z,3.70
2017-09-07T06:02:48.965Z,3.70
2017-09-07T06:05:16.858Z,3.57
2017-09-07T06:07:44.784Z,3.40
2017-09-07T06:10:12.685Z,3.10
2017-09-07T06:12:40.693Z,5.33
2017-09-07T06:15:08.603Z,4.73
2017-09-07T06:17:36.743Z,3.57
2017-09-07T06:20:04.669Z,4.37
2017-09-07T06:22:32.550Z,3.87
2017-09-07T06:25:00.406Z,3.00
2017-09-07T06:27:28.244Z,4.23
2017-09-07T06:29:56.098Z,3.87
2017-09-07T06:32:24.037Z,3.67
2017-09-07T06:34:52.055Z,3.37
2017-09-07T06:37:19.993Z,4.27
2017-09-07T06:39:47.835Z,3.50
2017-09-07T06:42:15.740Z,4.50
2017-09-07T06:44:43.679Z,4.30
2017-09-07T06:47:11.581Z,3.77
2017-09-07T06:49:39.466Z,4.23
2017-09-07T06:52:07.348Z,4.20
2017-09-07T06:54:35.214Z,3.83
2017-09-07T06:57:03.152Z,4.30
2017-09-07T06:59:31.036Z,5.40
2017-09-07T07:01:59.855Z,4.50
2017-09-07T07:04:27.747Z,5.40
2017-09-07T07:06:55.761Z,5.10
2017-09-07T07:09:23.610Z,6.77
2017-09-07T07:11:51.528Z,5.47
2017-09-07T07:14:19.416Z,4.80
2017-09-07T07:16:47.272Z,5.00
2017-09-07T07:19:16.032Z,4.67
2017-09-07T07:21:43.902Z,4.67
2017-09-07T07:24:11.959Z,4.80
2017-09-07T07:26:40.636Z,5.97
2017-09-07T07:29:08.560Z,5.70
2017-09-07T07:31:37.301Z,4.77
2017-09-07T07:34:05.239Z,5.80
2017-09-07T07:36:33.219Z,6.37
2017-09-07T07:39:01.069Z,6.07
2017-09-07T07:41:28.920Z,6.43
2017-09-07T07:43:56.782Z,6.10
2017-09-07T07:46:25.612Z,4.50
2017-09-07T07:48:54.691Z,4.67
2017-09-07T07:51:22.607Z,4.37
2017-09-07T07:53:51.364Z,5.00
2017-09-07T07:56:19.236Z,4.03
2017-09-07T07:58:47.912Z,4.00
2017-09-07T08:01:15.795Z,4.30
2017-09-07T08:03:44.696Z,4.60
2017-09-07T08:06:13.514Z,4.83
2017-09-07T08:08:41.414Z,4.30
2017-09-07T08:11:09.481Z,4.17
2017-09-07T08:13:37.425Z,3.90
2017-09-07T08:16:05.254Z,4.77
2017-09-07T08:18:33.093Z,4.20
2017-09-07T08:21:01.035Z,4.20
2017-09-07T08:23:29.587Z,3.83
2017-09-07T08:25:57.581Z,4.80
2017-09-07T08:28:25.510Z,4.33
2017-09-07T08:30:53.328Z,4.20
2017-09-07T08:33:21.234Z,5.17
2017-09-07T08:35:49.336Z,5.30
2017-09-07T08:38:17.324Z,4.93
2017-09-07T08:40:45.618Z,5.07
2017-09-07T08:43:14.361Z,5.17
2017-09-07T08:45:42.259Z,6.20
2017-09-07T08:48:10.107Z,5.50
2017-09-07T08:50:37.933Z,4.10
2017-09-07T08:53:07.514Z,4.43
2017-09-07T08:55:35.346Z,6.00
2017-09-07T08:58:03.205Z,4.70
2017-09-07T09:00:31.079Z,4.60
2017-09-07T09:02:58.974Z,4.90
2017-09-07T09:05:26.886Z,6.07
2017-09-07T09:07:54.702Z,4.30
2017-09-07T09:10:22.516Z,4.00
2017-09-07T09:12:50.544Z,4.93
2017-09-07T09:15:18.651Z,3.90
2017-09-07T09:17:46.487Z,4.80
2017-09-07T09:20:14.415Z,4.37
2017-09-07T09:22:42.279Z,5.20
2017-09-07T09:25:10.109Z,4.80
2017-09-07T09:27:38.040Z,5.17
2017-09-07T09:30:06.112Z,3.93
2017-09-07T09:32:34.036Z,4.77
2017-09-07T09:35:01.975Z,4.22
2017-09-07T09:37:30.016Z,4.67
2017-09-07T09:39:57.929Z,4.20
2017-09-07T09:42:25.824Z,5.40
2017-09-07T09:44:53.743Z,6.67
2017-09-07T09:47:21.613Z,4.50
2017-09-07T09:49:49.452Z,4.87
2017-09-07T09:52:17.276Z,4.40
2017-09-07T09:54:45.092Z,3.93
2017-09-07T09:57:12.896Z,3.77
2017-09-07T09:59:40.785Z,4.40
2017-09-07T10:02:08.700Z,4.73
2017-09-07T10:04:36.623Z,3.77
2017-09-07T10:07:04.493Z,4.30
2017-09-07T10:09:32.328Z,4.10
2017-09-07T10:12:00.183Z,4.33
2017-09-07T10:14:28.044Z,3.53
2017-09-07T10:16:55.888Z,3.73
2017-09-07T10:19:23.697Z,3.13
2017-09-07T10:21:51.521Z,3.47
2017-09-07T10:24:19.363Z,3.43
2017-09-07T10:26:47.256Z,4.17
2017-09-07T10:29:15.209Z,4.70
2017-09-07T10:31:43.081Z,3.80
2017-09-07T10:34:10.936Z,3.77
2017-09-07T10:36:38.767Z,4.47
2017-09-07T10:39:06.592Z,3.63
2017-09-07T10:41:34.399Z,8.60
2017-09-07T10:44:02.312Z,3.80
2017-09-07T10:46:30.858Z,5.60
2017-09-07T10:48:58.712Z,5.17
2017-09-07T10:51:26.588Z,6.50
2017-09-07T10:53:54.413Z,10.00
2017-09-07T10:56:22.330Z,9.27
2017-09-07T10:58:50.192Z,33.07
2017-09-07T11:01:18.224Z,11.73
2017-09-07T11:03:46.148Z,14.50
2017-09-07T11:06:14.065Z,16.07
2017-09-07T11:08:41.859Z,9.63
2017-09-07T11:11:09.720Z,9.57
2017-09-07T11:13:37.693Z,7.33
2017-09-07T11:16:05.585Z,6.60
2017-09-07T11:18:33.499Z,5.93
2017-09-07T11:21:01.689Z,4.90
2017-09-07T11:23:29.541Z,6.93
2017-09-07T11:25:57.432Z,5.87
2017-09-07T11:28:25.285Z,4.17
2017-09-07T11:30:53.124Z,6.03
2017-09-07T11:33:21.031Z,4.10
2017-09-07T11:35:48.898Z,4.53
2017-09-07T11:38:16.871Z,3.80
2017-09-07T11:40:45.019Z,3.50
2017-09-07T11:43:15.105Z,3.27
2017-09-07T11:45:43.204Z,3.73
2017-09-07T11:48:11.130Z,4.00
2017-09-07T11:50:39.250Z,4.67
2017-09-07T11:53:07.287Z,3.20
2017-09-07T11:55:35.421Z,3.97
2017-09-07T11:58:03.360Z,3.07
2017-09-07T12:00:31.232Z,4.03
2017-09-07T12:02:59.072Z,3.53
2017-09-07T12:05:26.966Z,3.80
2017-09-07T12:07:54.845Z,3.73
2017-09-07T12:10:22.706Z,3.20
2017-09-07T12:12:50.612Z,3.37
2017-09-07T12:15:18.435Z,3.47
2017-09-07T12:17:46.293Z,3.50
2017-09-07T12:20:14.316Z,3.10
2017-09-07T12:22:42.203Z,3.37
2017-09-07T12:25:10.855Z,4.07
2017-09-07T12:27:38.772Z,3.40
2017-09-07T12:30:06.670Z,3.47
2017-09-07T12:32:34.588Z,4.20
2017-09-07T12:35:03.308Z,3.90
2017-09-07T12:37:31.254Z,3.07
2017-09-07T12:40:00.508Z,3.70
2017-09-07T12:42:28.361Z,3.33
2017-09-07T12:44:56.255Z,3.43
2017-09-07T12:47:24.171Z,4.30
2017-09-07T12:49:51.994Z,3.70
2017-09-07T12:52:19.921Z,3.37
2017-09-07T12:54:47.758Z,3.67
2017-09-07T12:57:18.007Z,3.60
2017-09-07T12:59:45.886Z,3.37
2017-09-07T13:02:13.780Z,3.47
2017-09-07T13:04:41.721Z,3.80
2017-09-07T13:07:09.684Z,4.00
2017-09-07T13:09:37.697Z,3.60
2017-09-07T13:12:05.688Z,3.97
2017-09-07T13:14:33.605Z,3.80
2017-09-07T13:17:01.547Z,4.23
2017-09-07T13:19:29.438Z,4.73
2017-09-07T13:21:57.443Z,3.63
2017-09-07T13:24:25.396Z,3.40
2017-09-07T13:26:53.207Z,3.60
2017-09-07T13:29:21.060Z,4.10
2017-09-07T13:31:48.904Z,4.07
2017-09-07T13:34:16.829Z,3.03
2017-09-07T13:36:44.672Z,3.80
2017-09-07T13:39:12.553Z,4.30
2017-09-07T13:41:40.456Z,3.90
2017-09-07T13:44:08.384Z,3.40
2017-09-07T13:46:36.477Z,3.90
2017-09-07T13:49:04.409Z,3.60
2017-09-07T13:51:32.326Z,4.70
2017-09-07T13:54:00.235Z,4.67
2017-09-07T13:56:30.672Z,5.53
2017-09-07T13:58:58.493Z,4.13
2017-09-07T14:01:26.438Z,3.97
2017-09-07T14:03:54.225Z,4.10
2017-09-07T14:06:22.907Z,3.25
2017-09-07T14:08:50.757Z,3.80
2017-09-07T14:11:18.655Z,3.77
2017-09-07T14:13:46.468Z,3.27
2017-09-07T14:16:14.330Z,3.80
2017-09-07T14:18:42.208Z,3.83
2017-09-07T14:21:10.005Z,4.30
2017-09-07T14:23:37.824Z,3.53
2017-09-07T14:26:05.636Z,3.10
2017-09-07T14:28:33.675Z,3.90
2017-09-07T14:31:01.456Z,4.00
2017-09-07T14:33:29.380Z,3.00
2017-09-07T14:35:57.199Z,3.10
2017-09-07T14:38:25.020Z,3.23
2017-09-07T14:40:52.792Z,3.37
2017-09-07T14:43:20.568Z,2.80
2017-09-07T14:45:48.340Z,2.83
2017-09-07T14:48:21.270Z,3.90
2017-09-07T14:50:49.136Z,2.73
2017-09-07T14:53:16.967Z,3.47
2017-09-07T14:55:44.804Z,2.87
2017-09-07T14:58:12.693Z,3.30
2017-09-07T15:00:40.474Z,2.77
2017-09-07T15:03:08.364Z,3.13
2017-09-07T15:05:36.143Z,3.20
2017-09-07T15:08:03.992Z,2.73
2017-09-07T15:10:31.765Z,3.47
2017-09-07T15:12:59.572Z,2.80
2017-09-07T15:15:27.383Z,2.90
2017-09-07T15:17:56.132Z,3.30
2017-09-07T15:20:23.944Z,3.07
2017-09-07T15:22:51.739Z,3.57
2017-09-07T15:25:19.540Z,2.93
2017-09-07T15:27:47.311Z,3.53
2017-09-07T15:30:15.168Z,3.53
2017-09-07T15:32:43.079Z,3.23
2017-09-07T15:35:10.903Z,3.13
2017-09-07T15:37:38.691Z,2.90
2017-09-07T15:40:06.481Z,3.23
2017-09-07T15:42:34.309Z,3.50
2017-09-07T15:45:02.122Z,3.30
2017-09-07T15:47:29.944Z,3.10
2017-09-07T15:49:57.821Z,4.13
2017-09-07T15:52:25.682Z,3.40
2017-09-07T15:54:53.556Z,3.23
2017-09-07T15:57:21.380Z,3.03
2017-09-07T15:59:49.190Z,3.90
2017-09-07T16:02:16.990Z,2.50
2017-09-07T16:04:44.825Z,2.90
2017-09-07T16:07:12.648Z,3.30
2017-09-07T16:09:41.404Z,3.30
2017-09-07T16:12:09.216Z,3.73
2017-09-07T16:14:37.003Z,4.20
2017-09-07T16:17:04.885Z,3.40
2017-09-07T16:19:32.692Z,3.77
2017-09-07T16:22:00.517Z,3.30
2017-09-07T16:24:29.201Z,3.63
2017-09-07T16:26:56.992Z,3.73
2017-09-07T16:29:24.813Z,3.83
2017-09-07T16:31:52.625Z,3.67
2017-09-07T16:34:20.481Z,3.57
2017-09-07T16:36:48.304Z,4.17
2017-09-07T16:39:16.212Z,3.50
2017-09-07T16:41:44.023Z,4.40
2017-09-07T16:44:11.812Z,5.40
2017-09-07T16:46:39.654Z,4.50
2017-09-07T16:49:09.063Z,4.40
2017-09-07T16:51:36.886Z,3.33
2017-09-07T16:54:04.910Z,3.03
2017-09-07T16:56:33.005Z,3.57
2017-09-07T16:59:00.796Z,3.50
2017-09-07T17:01:28.756Z,3.90
2017-09-07T17:03:56.593Z,3.30
2017-09-07T17:06:24.489Z,3.60
2017-09-07T17:08:52.323Z,4.13
2017-09-07T17:11:20.132Z,3.50
2017-09-07T17:13:47.952Z,3.80
2017-09-07T17:16:15.878Z,3.90
2017-09-07T17:18:43.747Z,3.30
2017-09-07T17:21:11.536Z,3.60
2017-09-07T17:23:39.385Z,3.90
2017-09-07T17:26:07.188Z,4.30
2017-09-07T17:28:35.757Z,3.70
2017-09-07T17:31:03.685Z,3.40
2017-09-07T17:33:31.635Z,4.50
2017-09-07T17:35:59.452Z,3.50
2017-09-07T17:38:28.799Z,3.13
2017-09-07T17:40:56.660Z,3.40
2017-09-07T17:43:24.432Z,3.00
2017-09-07T17:45:52.383Z,3.67
2017-09-07T17:48:20.691Z,3.93
2017-09-07T17:50:49.236Z,3.70
2017-09-07T17:53:19.047Z,3.90
2017-09-07T17:55:47.901Z,3.67
2017-09-07T17:58:15.684Z,4.20
2017-09-07T18:00:43.475Z,3.10
2017-09-07T18:03:11.258Z,3.60
2017-09-07T18:05:39.120Z,2.70
2017-09-07T18:08:07.137Z,3.73
2017-09-07T18:10:34.943Z,3.63
2017-09-07T18:13:02.784Z,4.03
2017-09-07T18:15:30.605Z,3.97
2017-09-07T18:17:59.390Z,4.83
2017-09-07T18:20:27.221Z,3.90
2017-09-07T18:22:55.063Z,4.10
2017-09-07T18:25:54.059Z,3.53
2017-09-07T18:28:21.974Z,3.20
2017-09-07T18:30:49.809Z,3.40
2017-09-07T18:33:18.372Z,4.07
2017-09-07T18:35:46.311Z,3.60
2017-09-07T18:38:14.144Z,4.57
2017-09-07T18:40:41.972Z,4.37
2017-09-07T18:43:09.776Z,5.63
2017-09-07T18:45:37.682Z,6.50
2017-09-07T18:48:05.542Z,5.40
2017-09-07T18:50:33.551Z,3.40
2017-09-07T18:53:02.140Z,4.30
2017-09-07T18:55:30.683Z,5.80
2017-09-07T18:57:58.498Z,4.97
2017-09-07T19:00:27.122Z,4.97
2017-09-07T19:02:55.051Z,6.63
2017-09-07T19:05:23.639Z,9.23
2017-09-07T19:07:51.450Z,8.30
2017-09-07T19:10:19.320Z,5.80
2017-09-07T19:12:47.236Z,4.63
2017-09-07T19:15:19.105Z,5.00
2017-09-07T19:17:46.904Z,4.20
2017-09-07T19:20:14.700Z,4.40
2017-09-07T19:22:42.510Z,4.90
2017-09-07T19:25:10.352Z,4.87
2017-09-07T19:27:38.199Z,4.70
2017-09-07T19:30:06.769Z,4.17
2017-09-07T19:32:34.667Z,4.50
2017-09-07T19:35:03.255Z,4.53
2017-09-07T19:37:31.092Z,4.47
2017-09-07T19:39:59.109Z,4.80
2017-09-07T19:42:26.926Z,3.80
2017-09-07T19:44:54.750Z,4.03
2017-09-07T19:47:22.654Z,3.77
2017-09-07T19:49:50.498Z,4.20
2017-09-07T19:52:18.317Z,4.53
2017-09-07T19:54:46.164Z,5.23
2017-09-07T19:57:14.777Z,3.97
2017-09-07T19:59:42.648Z,4.70
2017-09-07T20:02:10.602Z,4.60
2017-09-07T20:04:38.471Z,4.07
2017-09-07T20:07:06.303Z,3.83
2017-09-07T20:09:34.305Z,4.47
2017-09-07T20:12:02.118Z,5.00
2017-09-07T20:14:29.904Z,5.33
2017-09-07T20:16:57.813Z,3.63
2017-09-07T20:19:25.701Z,4.73
2017-09-07T20:21:53.500Z,5.90
2017-09-07T20:24:21.369Z,4.57
2017-09-07T20:26:50.249Z,4.73
2017-09-07T20:29:18.888Z,5.60
2017-09-07T20:31:46.974Z,5.00
2017-09-07T20:34:15.036Z,4.20
2017-09-07T20:36:42.901Z,4.83
2017-09-07T20:39:10.721Z,4.13
2017-09-07T20:41:39.718Z,4.60
2017-09-07T20:44:07.635Z,4.47
2017-09-07T20:46:35.465Z,4.40
2017-09-07T20:49:04.307Z,4.20
2017-09-07T20:51:32.212Z,4.23
2017-09-07T20:54:00.864Z,4.00
2017-09-07T20:56:28.653Z,4.27
2017-09-07T20:58:57.330Z,4.10
2017-09-07T21:01:25.930Z,4.20
2017-09-07T21:03:54.464Z,4.93
2017-09-07T21:06:22.253Z,3.70
2017-09-07T21:08:50.044Z,3.10
2017-09-07T21:11:18.633Z,4.30
2017-09-07T21:13:47.212Z,5.10
2017-09-07T21:16:15.112Z,3.80
2017-09-07T21:18:43.147Z,4.20
2017-09-07T21:21:11.775Z,4.43
2017-09-07T21:23:40.519Z,3.37
2017-09-07T21:26:09.136Z,4.13
2017-09-07T21:28:36.941Z,3.67
2017-09-07T21:31:04.835Z,3.70
2017-09-07T21:33:32.657Z,3.20
2017-09-07T21:36:00.531Z,3.83
2017-09-07T21:38:28.505Z,4.23
2017-09-07T21:40:56.300Z,4.05
2017-09-07T21:43:24.953Z,3.07
2017-09-07T21:45:52.780Z,2.90
2017-09-07T21:48:20.601Z,3.30
2017-09-07T21:50:48.531Z,3.10
2017-09-07T21:53:16.410Z,3.33
2017-09-07T21:55:44.289Z,2.70
2017-09-07T21:58:12.141Z,3.20
2017-09-07T22:00:39.920Z,2.70
2017-09-07T22:03:07.707Z,3.00
2017-09-07T22:05:35.552Z,2.80
2017-09-07T22:08:03.468Z,3.00
2017-09-07T22:10:31.333Z,2.50
2017-09-07T22:12:59.177Z,3.30
2017-09-07T22:15:28.034Z,3.00
2017-09-07T22:17:55.820Z,3.40
2017-09-07T22:20:23.622Z,3.10
2017-09-07T22:22:51.422Z,3.40
2017-09-07T22:25:19.245Z,2.50
2017-09-07T22:27:47.043Z,2.63
2017-09-07T22:30:14.911Z,2.90
2017-09-07T22:32:42.784Z,3.13
2017-09-07T22:35:10.576Z,2.77
2017-09-07T22:37:38.371Z,3.30
2017-09-07T22:40:06.151Z,2.63
2017-09-07T22:42:33.978Z,3.20
2017-09-07T22:45:02.576Z,3.13
2017-09-07T22:47:31.152Z,2.50
2017-09-07T22:49:59.818Z,2.87
2017-09-07T22:52:27.679Z,2.67
2017-09-07T22:54:55.477Z,3.30
2017-09-07T22:57:24.068Z,2.80
2017-09-07T22:59:51.933Z,2.83
2017-09-07T23:02:19.770Z,2.80
2017-09-07T23:04:47.636Z,3.30
2017-09-07T23:07:15.448Z,3.23
2017-09-07T23:09:43.258Z,2.80
2017-09-07T23:12:11.081Z,2.60
2017-09-07T23:14:38.886Z,2.77
2017-09-07T23:17:06.838Z,2.70
2017-09-07T23:19:34.647Z,2.53
2017-09-07T23:22:03.198Z,3.67
2017-09-07T23:24:31.321Z,4.00
2017-09-07T23:26:59.195Z,3.43
2017-09-07T23:29:27.051Z,3.10
2017-09-07T23:31:54.957Z,3.37
2017-09-07T23:34:22.858Z,3.43
2017-09-07T23:36:51.483Z,3.17
2017-09-07T23:39:19.309Z,3.63
2017-09-07T23:41:47.869Z,3.13
2017-09-07T23:44:15.732Z,3.53
2017-09-07T23:46:43.529Z,3.30
2017-09-07T23:49:12.163Z,3.23
2017-09-07T23:51:40.027Z,3.80
2017-09-07T23:54:07.835Z,3.20
2017-09-07T23:56:36.409Z,4.00
2017-09-07T23:59:04.997Z,4.47
